Time;durP1;ratioP1;P1;durP2;ratioP2;P2;SDS_P1;SDS_P2;PMS_P1;PMS_P2;Temp;Humidity;BMP_temperature;BMP_pressure;BME280_temperature;BME280_humidity;BME280_pressure;Samples;Min_cycle;Max_cycle;Signal;HPM_P1;HPM_P2
2021/10/14 00:01:20;;;;;;;22.30;13.00;;;;;;;6.63;77.72;99404.61;116556;1200;139525;-63
2021/10/14 00:03:48;;;;;;;22.60;12.90;;;;;;;6.62;77.81;99403.60;116731;1199;22319;-62
2021/10/14 00:06:16;;;;;;;19.60;12.40;;;;;;;6.59;77.82;99401.69;116687;1199;22694;-62
2021/10/14 00:08:45;;;;;;;22.10;12.70;;;;;;;6.57;77.99;99405.00;116584;1200;137740;-63
2021/10/14 00:11:13;;;;;;;19.70;11.90;;;;;;;6.55;78.09;99411.61;116750;1199;22262;-63
2021/10/14 00:13:42;;;;;;;19.70;12.40;;;;;;;6.53;78.01;99415.23;116592;1200;139179;-63
2021/10/14 00:16:10;;;;;;;17.30;11.20;;;;;;;6.52;78.06;99419.08;116783;1199;22997;-61
2021/10/14 00:18:39;;;;;;;23.10;12.50;;;;;;;6.49;78.17;99422.94;116350;1202;22303;-63
2021/10/14 00:21:07;;;;;;;28.80;12.60;;;;;;;6.48;78.04;99425.08;116506;1193;138500;-63
2021/10/14 00:23:36;;;;;;;21.70;13.50;;;;;;;6.47;77.97;99425.60;116746;1200;22404;-62
2021/10/14 00:26:04;;;;;;;21.90;13.90;;;;;;;6.45;78.09;99420.46;116637;1199;137897;-62
2021/10/14 00:28:33;;;;;;;22.70;12.60;;;;;;;6.44;78.07;99424.01;116769;1199;22369;-62
2021/10/14 00:31:01;;;;;;;22.90;12.70;;;;;;;6.44;78.20;99426.64;116644;1200;22287;-62
2021/10/14 00:33:29;;;;;;;21.60;13.60;;;;;;;6.43;78.03;99431.17;116496;1195;137492;-62
2021/10/14 00:35:57;;;;;;;22.40;12.90;;;;;;;6.43;78.26;99429.11;116693;1200;23009;-63
2021/10/14 00:38:25;;;;;;;22.30;12.80;;;;;;;6.43;78.20;99431.44;116608;1200;137703;-62
2021/10/14 00:40:53;;;;;;;23.00;14.90;;;;;;;6.43;78.27;99436.64;116732;1200;22294;-62
2021/10/14 00:43:21;;;;;;;20.10;12.80;;;;;;;6.43;78.23;99439.09;116564;1200;138427;-62
2021/10/14 00:45:49;;;;;;;26.00;13.40;;;;;;;6.42;78.29;99434.73;116631;1200;22331;-62
2021/10/14 00:48:19;;;;;;;18.90;12.40;;;;;;;6.43;78.40;99439.23;116642;1201;22439;-61
2021/10/14 00:50:47;;;;;;;21.90;14.40;;;;;;;6.43;78.51;99437.17;116534;1200;137692;-62
2021/10/14 00:53:15;;;;;;;21.10;13.40;;;;;;;6.43;78.35;99440.86;116586;1200;22243;-61
2021/10/14 00:55:43;;;;;;;18.60;11.90;;;;;;;6.43;78.54;99439.23;116589;1200;138436;-61
2021/10/14 00:58:11;;;;;;;17.10;11.80;;;;;;;6.44;78.27;99442.67;116602;1199;23357;-61
2021/10/14 01:00:40;;;;;;;17.70;11.90;;;;;;;6.43;78.27;99446.60;116546;1200;22413;-61
2021/10/14 01:03:08;;;;;;;19.40;11.90;;;;;;;6.42;78.32;99445.61;116556;1199;137761;-61
2021/10/14 01:05:41;;;;;;;17.10;12.00;;;;;;;6.41;78.35;99445.24;115739;1200;22797;-61
2021/10/14 01:08:09;;;;;;;18.80;12.30;;;;;;;6.41;77.97;99446.06;116518;1200;137695;-62
2021/10/14 01:10:37;;;;;;;23.50;13.50;;;;;;;6.41;78.03;99448.49;116700;1199;22250;-62
2021/10/14 01:13:06;;;;;;;23.30;14.90;;;;;;;6.41;77.97;99450.29;116609;1201;23415;-61
2021/10/14 01:15:34;;;;;;;19.60;12.60;;;;;;;6.40;78.05;99450.63;116603;1200;137513;-62
2021/10/14 01:18:02;;;;;;;19.40;11.50;;;;;;;6.39;78.13;99457.10;116692;1200;22325;-61
2021/10/14 01:20:30;;;;;;;18.60;11.70;;;;;;;6.38;78.00;99457.19;116593;1200;137699;-62
2021/10/14 01:22:58;;;;;;;19.70;12.60;;;;;;;6.38;77.81;99460.05;116742;1200;22321;-62
2021/10/14 01:25:27;;;;;;;19.00;11.30;;;;;;;6.38;78.02;99463.64;116543;1200;139106;-62
2021/10/14 01:27:55;;;;;;;18.40;12.10;;;;;;;6.38;77.90;99468.52;116683;1200;22383;-62
2021/10/14 01:30:23;;;;;;;18.70;11.00;;;;;;;6.37;78.03;99469.82;116732;1199;22230;-63
2021/10/14 01:32:51;;;;;;;14.20;10.60;;;;;;;6.36;77.81;99473.58;116630;1200;137957;-62
2021/10/14 01:35:19;;;;;;;18.80;11.60;;;;;;;6.34;77.76;99477.58;116772;1200;22343;-63
2021/10/14 01:37:47;;;;;;;18.00;11.60;;;;;;;6.32;77.67;99475.23;116562;1200;137852;-63
2021/10/14 01:40:16;;;;;;;17.50;11.30;;;;;;;6.30;77.90;99476.77;116840;1199;23189;-62
2021/10/14 01:42:44;;;;;;;13.40;9.70;;;;;;;6.29;77.98;99481.98;116624;1200;22343;-62
2021/10/14 01:45:12;;;;;;;16.60;11.00;;;;;;;6.28;77.83;99486.70;116577;1200;137607;-62
2021/10/14 01:47:40;;;;;;;14.80;9.80;;;;;;;6.26;77.85;99489.31;116655;1200;22300;-63
2021/10/14 01:50:08;;;;;;;15.70;10.40;;;;;;;6.27;78.06;99493.17;116550;1199;137617;-63
2021/10/14 01:52:37;;;;;;;13.40;9.50;;;;;;;6.25;77.78;99495.94;116714;1200;22355;-63
2021/10/14 01:55:05;;;;;;;16.90;10.50;;;;;;;6.24;77.94;99492.00;116705;1200;22346;-63
2021/10/14 01:57:33;;;;;;;21.50;12.00;;;;;;;6.22;77.99;99496.48;116527;1200;138363;-63
2021/10/14 02:00:03;;;;;;;17.10;11.10;;;;;;;6.19;77.79;99501.91;116776;1199;22449;-63
2021/10/14 02:02:38;;;;;;;22.90;13.00;;;;;;;6.17;77.97;99508.23;116540;1199;137915;-63
2021/10/14 02:05:07;;;;;;;22.80;12.90;;;;;;;6.15;77.98;99511.20;116670;1200;22322;-63
2021/10/14 02:07:35;;;;;;;19.40;11.70;;;;;;;6.13;78.14;99507.40;116628;1200;138426;-63
2021/10/14 02:10:04;;;;;;;14.70;9.90;;;;;;;6.13;78.03;99513.77;116710;1186;22311;-63
2021/10/14 02:12:32;;;;;;;17.10;10.00;;;;;;;6.10;78.09;99512.67;116750;1200;22151;-63
2021/10/14 02:15:00;;;;;;;14.50;9.60;;;;;;;6.06;78.12;99514.90;116520;1200;138696;-63
2021/10/14 02:17:29;;;;;;;13.40;9.40;;;;;;;6.04;78.35;99513.82;112574;1200;24167;-62
2021/10/14 02:19:57;;;;;;;15.10;9.90;;;;;;;6.03;78.09;99519.52;116620;1195;137785;-64
2021/10/14 02:22:25;;;;;;;18.30;10.20;;;;;;;5.99;78.35;99519.77;116696;1199;23167;-64
2021/10/14 02:24:53;;;;;;;14.00;9.60;;;;;;;5.96;78.20;99523.81;116676;1200;23278;-63
2021/10/14 02:27:21;;;;;;;15.00;10.30;;;;;;;5.93;78.48;99529.73;116518;1200;137516;-64
2021/10/14 02:29:49;;;;;;;14.70;10.10;;;;;;;5.88;78.26;99530.73;116688;1200;22341;-63
2021/10/14 02:34:40;;;;;;;15.80;10.40;;;;;;;5.80;78.50;99540.70;111080;1214;544825;-62
2021/10/14 02:37:08;;;;;;;22.00;11.50;;;;;;;5.74;78.55;99541.55;112001;1196;22763;-63
2021/10/14 02:39:37;;;;;;;19.80;11.30;;;;;;;5.72;78.73;99551.95;115984;1203;137371;-63
2021/10/14 02:42:05;;;;;;;14.80;10.70;;;;;;;5.68;78.82;99559.27;116090;1205;22892;-63
2021/10/14 02:44:33;;;;;;;17.20;11.70;;;;;;;5.66;78.85;99559.02;116155;1204;137358;-62
2021/10/14 02:47:01;;;;;;;16.40;11.00;;;;;;;5.64;79.05;99560.92;116135;1203;22807;-62
2021/10/14 02:49:30;;;;;;;20.10;11.80;;;;;;;5.60;78.96;99561.37;116089;1205;138470;-63
2021/10/14 02:51:58;;;;;;;16.20;10.00;;;;;;;5.55;78.88;99564.06;116290;1205;22386;-62
2021/10/14 02:54:26;;;;;;;16.90;10.80;;;;;;;5.51;79.41;99564.73;116192;1205;22312;-63
2021/10/14 02:56:54;;;;;;;19.70;11.80;;;;;;;5.48;79.38;99563.20;116136;1204;139430;-63
2021/10/14 02:59:22;;;;;;;17.70;11.10;;;;;;;5.44;79.23;99564.70;116219;1205;22162;-63
2021/10/14 03:01:51;;;;;;;17.40;10.70;;;;;;;5.40;79.35;99571.38;116081;1204;137406;-61
2021/10/14 03:04:19;;;;;;;21.40;11.20;;;;;;;5.37;79.17;99574.64;116250;1204;22967;-63
2021/10/14 03:06:47;;;;;;;16.80;10.30;;;;;;;5.33;79.20;99576.48;116218;1204;22438;-62
2021/10/14 03:09:15;;;;;;;20.00;10.50;;;;;;;5.29;79.28;99576.52;116117;1203;137745;-63
2021/10/14 03:11:43;;;;;;;17.40;11.80;;;;;;;5.25;79.36;99574.05;116191;1204;23137;-62
2021/10/14 03:14:11;;;;;;;17.20;10.90;;;;;;;5.22;79.63;99573.04;116088;1204;137749;-62
2021/10/14 03:16:40;;;;;;;20.10;11.90;;;;;;;5.19;79.25;99575.98;116244;1205;23557;-63
2021/10/14 03:19:08;;;;;;;16.00;10.70;;;;;;;5.17;79.31;99581.37;116171;1204;22302;-62
2021/10/14 03:21:37;;;;;;;15.90;10.90;;;;;;;5.14;79.61;99581.27;116108;1200;138131;-62
2021/10/14 03:24:05;;;;;;;19.70;12.30;;;;;;;5.12;79.67;99583.03;116189;1204;23012;-62
2021/10/14 03:26:33;;;;;;;16.40;10.80;;;;;;;5.10;79.61;99586.95;115931;1198;137535;-61
2021/10/14 03:29:01;;;;;;;17.10;11.40;;;;;;;5.07;79.53;99584.76;116117;1205;24358;-62
2021/10/14 03:31:29;;;;;;;18.80;11.70;;;;;;;5.05;79.66;99585.34;115915;1204;137563;-63
2021/10/14 03:33:58;;;;;;;19.60;12.00;;;;;;;5.02;79.75;99586.07;116064;1205;22361;-63
2021/10/14 03:36:26;;;;;;;19.60;12.50;;;;;;;4.99;79.71;99592.11;116115;1204;22323;-62
2021/10/14 03:38:54;;;;;;;19.70;12.40;;;;;;;4.96;79.78;99593.63;115935;1205;139044;-63
2021/10/14 03:41:22;;;;;;;18.90;12.00;;;;;;;4.91;79.51;99590.63;116088;1205;23101;-62
2021/10/14 03:43:50;;;;;;;16.60;11.10;;;;;;;4.88;79.54;99593.83;115966;1205;138390;-62
2021/10/14 03:46:18;;;;;;;18.60;12.00;;;;;;;4.84;79.60;99599.99;115998;1204;22734;-63
2021/10/14 03:48:46;;;;;;;16.90;12.20;;;;;;;4.79;79.61;99597.65;116099;1198;22319;-62
2021/10/14 03:51:15;;;;;;;18.30;12.20;;;;;;;4.75;79.81;99600.29;115871;1205;138340;-62
2021/10/14 03:53:43;;;;;;;19.90;12.70;;;;;;;4.72;79.65;99607.14;116028;1205;22313;-62
2021/10/14 03:56:11;;;;;;;19.20;12.90;;;;;;;4.69;79.64;99609.06;115960;1204;137586;-63
2021/10/14 03:58:39;;;;;;;18.90;12.70;;;;;;;4.64;79.92;99614.32;116036;1205;22342;-62
2021/10/14 04:01:07;;;;;;;19.10;13.40;;;;;;;4.61;79.80;99620.25;116022;1203;23079;-62
2021/10/14 04:03:37;;;;;;;28.00;15.40;;;;;;;4.58;80.27;99623.30;115912;1205;138013;-61
2021/10/14 04:06:05;;;;;;;18.60;13.10;;;;;;;4.56;80.23;99620.77;116062;1204;22158;-63
2021/10/14 04:08:33;;;;;;;20.20;13.40;;;;;;;4.53;80.03;99624.52;116025;1204;138619;-62
2021/10/14 04:11:00;;;;;;;18.30;12.80;;;;;;;4.52;79.99;99624.36;116059;1200;22313;-62
2021/10/14 04:13:29;;;;;;;26.40;14.00;;;;;;;4.50;80.06;99634.91;115953;1205;138629;-63
2021/10/14 04:15:57;;;;;;;18.50;12.80;;;;;;;4.47;80.20;99635.35;116072;1190;22315;-62
2021/10/14 04:18:25;;;;;;;20.60;13.40;;;;;;;4.44;80.18;99634.30;115963;1205;22376;-63
2021/10/14 04:20:53;;;;;;;25.00;13.90;;;;;;;4.43;80.36;99635.38;115920;1205;138437;-63
2021/10/14 04:23:23;;;;;;;20.60;13.40;;;;;;;4.42;80.25;99638.78;115998;1205;22274;-63
2021/10/14 04:25:51;;;;;;;24.00;13.90;;;;;;;4.40;80.21;99638.09;115972;1205;137984;-63
2021/10/14 04:28:19;;;;;;;21.20;13.90;;;;;;;4.37;80.26;99639.00;116066;1205;22251;-63
2021/10/14 04:30:48;;;;;;;22.40;14.80;;;;;;;4.34;80.29;99644.75;116080;1205;22351;-63
2021/10/14 04:33:16;;;;;;;23.60;15.30;;;;;;;4.31;80.17;99651.12;116571;1200;137339;-62
2021/10/14 04:35:47;;;;;;;21.70;13.90;;;;;;;4.28;80.07;99653.98;116549;1201;22355;-63
2021/10/14 04:38:16;;;;;;;23.20;14.50;;;;;;;4.24;80.35;99659.40;116526;1193;139161;-63
2021/10/14 04:40:44;;;;;;;22.00;14.60;;;;;;;4.22;80.49;99657.53;116665;1200;22235;-62
2021/10/14 04:43:14;;;;;;;23.20;14.90;;;;;;;4.19;80.37;99662.93;116625;1200;23006;-63
2021/10/14 04:45:43;;;;;;;23.50;15.40;;;;;;;4.18;80.62;99669.54;116555;1201;137188;-63
2021/10/14 04:48:11;;;;;;;25.40;14.70;;;;;;;4.17;80.65;99672.42;116606;1200;22314;-63
2021/10/14 04:50:39;;;;;;;21.30;14.80;;;;;;;4.17;80.69;99676.45;116482;1200;137809;-62
2021/10/14 04:53:07;;;;;;;23.10;15.60;;;;;;;4.18;81.09;99680.95;116616;1200;23469;-63
2021/10/14 04:55:35;;;;;;;25.20;16.80;;;;;;;4.18;81.17;99683.55;116408;1201;137735;-63
2021/10/14 04:58:03;;;;;;;24.10;16.30;;;;;;;4.18;81.26;99688.99;116649;1200;22292;-63
2021/10/14 05:00:31;;;;;;;24.10;15.70;;;;;;;4.19;81.24;99690.19;116619;1200;22166;-63
2021/10/14 05:02:59;;;;;;;25.70;17.30;;;;;;;4.19;81.38;99693.67;116516;1201;138757;-63
2021/10/14 05:05:30;;;;;;;27.40;16.60;;;;;;;4.20;81.26;99702.77;116648;1200;22305;-62
2021/10/14 05:07:58;;;;;;;22.60;16.70;;;;;;;4.20;81.44;99704.16;116448;1200;137401;-61
2021/10/14 05:10:26;;;;;;;25.40;16.90;;;;;;;4.20;81.54;99709.64;116541;1195;22361;-64
2021/10/14 05:12:56;;;;;;;26.20;16.90;;;;;;;4.21;81.36;99713.33;116629;1199;22325;-62
2021/10/14 05:15:25;;;;;;;29.20;17.80;;;;;;;4.22;81.56;99712.17;116488;1200;137323;-63
2021/10/14 05:17:53;;;;;;;24.50;17.20;;;;;;;4.23;81.54;99711.47;116632;1200;22368;-64
2021/10/14 05:20:21;;;;;;;32.80;19.10;;;;;;;4.24;81.71;99715.16;116523;1200;138502;-63
2021/10/14 05:22:49;;;;;;;27.10;17.20;;;;;;;4.27;81.61;99718.06;116605;1193;23018;-65
2021/10/14 05:25:17;;;;;;;33.00;19.30;;;;;;;4.28;81.93;99722.50;116625;1200;22447;-63
2021/10/14 05:27:45;;;;;;;27.00;19.80;;;;;;;4.28;82.05;99720.91;116511;1200;138895;-65
2021/10/14 05:30:14;;;;;;;26.80;19.10;;;;;;;4.31;82.05;99723.77;116640;1200;22540;-65
2021/10/14 05:32:42;;;;;;;26.40;18.50;;;;;;;4.35;82.14;99730.96;116519;1200;137969;-66
2021/10/14 05:35:30;;;;;;;31.60;20.50;;;;;;;4.38;82.24;99732.50;116649;1200;23006;-66
2021/10/14 05:37:58;;;;;;;27.60;18.60;;;;;;;4.39;82.55;99735.90;116513;1200;138961;-62
2021/10/14 05:40:26;;;;;;;28.50;19.10;;;;;;;4.43;82.40;99746.27;116573;1195;23171;-64
2021/10/14 05:42:54;;;;;;;31.00;18.40;;;;;;;4.46;82.65;99749.66;116537;1200;22525;-66
2021/10/14 05:45:22;;;;;;;29.70;18.80;;;;;;;4.50;82.56;99751.05;116478;1201;137539;-66
2021/10/14 05:47:51;;;;;;;25.30;18.60;;;;;;;4.55;82.57;99754.73;116587;1200;22323;-66
2021/10/14 05:50:19;;;;;;;25.80;18.50;;;;;;;4.57;82.43;99755.44;116438;1200;137630;-66
2021/10/14 05:52:48;;;;;;;30.50;19.10;;;;;;;4.62;82.26;99752.95;116516;1200;23141;-66
2021/10/14 05:55:16;;;;;;;27.20;19.10;;;;;;;4.67;82.50;99754.52;116486;1200;22421;-66
2021/10/14 05:57:44;;;;;;;34.20;19.10;;;;;;;4.74;82.38;99763.05;112192;1191;138541;-66
2021/10/14 06:00:14;;;;;;;25.30;18.60;;;;;;;4.80;82.44;99762.88;116615;1200;23080;-66
2021/10/14 06:02:42;;;;;;;32.70;19.40;;;;;;;4.86;82.53;99763.33;116488;1200;137918;-67
2021/10/14 06:05:10;;;;;;;26.30;18.90;;;;;;;4.89;82.17;99763.81;116653;1197;22475;-65
2021/10/14 06:07:38;;;;;;;29.40;19.40;;;;;;;4.90;82.18;99764.89;116478;1200;139424;-66
2021/10/14 06:10:10;;;;;;;31.60;21.10;;;;;;;4.94;82.17;99772.24;116617;1201;22231;-66
2021/10/14 06:12:38;;;;;;;26.90;18.70;;;;;;;4.99;82.27;99773.77;116507;1201;22238;-66
2021/10/14 06:15:07;;;;;;;28.80;20.00;;;;;;;5.02;82.48;99772.59;116492;1201;138076;-65
2021/10/14 06:17:36;;;;;;;37.50;22.90;;;;;;;5.06;81.94;99774.89;116670;1200;22311;-66
2021/10/14 06:20:05;;;;;;;37.60;22.80;;;;;;;5.10;82.04;99778.98;116471;1201;138221;-66
2021/10/14 06:22:33;;;;;;;36.00;22.70;;;;;;;5.14;81.70;99789.39;116687;1201;22305;-65
2021/10/14 06:25:01;;;;;;;35.80;22.30;;;;;;;5.17;81.70;99790.50;116582;1200;22345;-66
2021/10/14 06:27:30;;;;;;;44.00;25.60;;;;;;;5.17;81.46;99792.63;116531;1199;138581;-65
2021/10/14 06:29:59;;;;;;;38.40;21.00;;;;;;;5.17;81.48;99796.57;116658;1199;23047;-66
2021/10/14 06:32:27;;;;;;;44.10;26.40;;;;;;;5.16;81.30;99798.31;116525;1200;137817;-66
2021/10/14 06:34:55;;;;;;;50.90;27.20;;;;;;;5.18;81.21;99806.66;116678;1200;23113;-66
2021/10/14 06:37:23;;;;;;;45.30;24.30;;;;;;;5.18;81.50;99808.74;116567;1200;139130;-66
2021/10/14 06:39:51;;;;;;;59.30;29.80;;;;;;;5.21;81.35;99809.45;116585;1200;22407;-66
2021/10/14 06:42:19;;;;;;;43.10;24.40;;;;;;;5.26;81.88;99808.43;116669;1200;22348;-66
2021/10/14 06:44:47;;;;;;;73.90;33.00;;;;;;;5.30;81.34;99808.33;116420;1200;138155;-66
2021/10/14 06:47:15;;;;;;;64.60;29.60;;;;;;;5.35;81.35;99807.67;116644;1200;22139;-66
2021/10/14 06:49:43;;;;;;;57.60;27.90;;;;;;;5.43;81.62;99810.30;116540;1200;138172;-66
2021/10/14 06:52:11;;;;;;;64.10;30.40;;;;;;;5.49;81.33;99808.96;116628;1200;22318;-66
2021/10/14 06:54:39;;;;;;;42.10;22.90;;;;;;;5.56;81.23;99811.73;116686;1194;23589;-66
2021/10/14 06:57:07;;;;;;;34.20;19.30;;;;;;;5.64;80.98;99811.97;116467;1200;138047;-66
2021/10/14 06:59:36;;;;;;;28.90;18.80;;;;;;;5.68;80.38;99814.23;116638;1200;23208;-66
2021/10/14 07:02:04;;;;;;;29.70;17.90;;;;;;;5.66;80.06;99809.46;116552;1200;137793;-66
2021/10/14 07:04:32;;;;;;;41.10;24.00;;;;;;;5.67;80.29;99811.20;116625;1200;23131;-66
2021/10/14 07:07:00;;;;;;;35.00;21.10;;;;;;;5.70;80.44;99813.05;113411;1200;24012;-66
2021/10/14 07:09:28;;;;;;;26.50;18.20;;;;;;;5.78;80.35;99819.35;112299;1201;138037;-64
2021/10/14 07:11:59;;;;;;;35.20;21.20;;;;;;;5.83;80.08;99820.77;116526;1200;22353;-64
2021/10/14 07:14:28;;;;;;;43.00;22.50;;;;;;;5.91;80.30;99830.06;116548;1200;137835;-65
2021/10/14 07:16:56;;;;;;;33.80;21.80;;;;;;;6.01;80.56;99833.31;116604;1195;22334;-65
2021/10/14 07:19:24;;;;;;;31.70;20.10;;;;;;;6.13;80.24;99832.38;116519;1200;137767;-65
2021/10/14 07:21:52;;;;;;;29.70;18.90;;;;;;;6.25;80.00;99836.71;116668;1200;23352;-65
2021/10/14 07:24:20;;;;;;;27.50;17.80;;;;;;;6.34;79.76;99833.98;116543;1200;22334;-65
2021/10/14 07:26:50;;;;;;;39.30;22.20;;;;;;;6.42;79.11;99831.19;116568;1195;138232;-65
2021/10/14 07:29:18;;;;;;;28.30;18.90;;;;;;;6.48;79.00;99828.80;116586;1200;22246;-65
2021/10/14 07:31:46;;;;;;;27.30;17.60;;;;;;;6.55;78.81;99828.64;116544;1200;138762;-65
2021/10/14 07:34:15;;;;;;;28.50;17.50;;;;;;;6.63;78.75;99829.60;116573;1201;22316;-64
2021/10/14 07:36:42;;;;;;;24.30;16.80;;;;;;;6.72;78.40;99833.38;116528;1195;23108;-64
2021/10/14 07:39:10;;;;;;;27.60;18.20;;;;;;;6.79;77.81;99829.01;116522;1200;138080;-64
2021/10/14 07:41:39;;;;;;;28.70;19.20;;;;;;;6.83;77.65;99829.95;116614;1200;22255;-64
2021/10/14 07:44:07;;;;;;;31.10;18.80;;;;;;;6.90;77.48;99829.18;116483;1200;138105;-64
2021/10/14 07:46:37;;;;;;;42.80;22.30;;;;;;;6.98;77.39;99834.27;116648;1189;22285;-64
2021/10/14 07:49:05;;;;;;;39.00;21.20;;;;;;;7.07;77.30;99834.34;116600;1200;22366;-64
2021/10/14 07:51:35;;;;;;;33.80;20.70;;;;;;;7.16;77.11;99828.02;116515;1200;138621;-64
2021/10/14 07:54:03;;;;;;;25.10;16.90;;;;;;;7.25;76.98;99837.18;116653;1200;23608;-64
2021/10/14 07:56:32;;;;;;;30.70;18.10;;;;;;;7.33;76.65;99838.72;116493;1200;138071;-64
2021/10/14 07:59:00;;;;;;;34.70;19.50;;;;;;;7.40;76.38;99840.73;116633;1200;22341;-65
2021/10/14 08:01:28;;;;;;;38.00;18.40;;;;;;;7.47;76.07;99843.81;116473;1200;138385;-66
2021/10/14 08:03:57;;;;;;;47.60;22.30;;;;;;;7.57;75.96;99845.52;116601;1196;22326;-65
2021/10/14 08:06:25;;;;;;;42.80;20.50;;;;;;;7.66;75.76;99844.67;116680;1200;23520;-65
2021/10/14 08:08:53;;;;;;;30.20;17.40;;;;;;;7.74;75.59;99842.09;116489;1195;138648;-65
2021/10/14 08:11:21;;;;;;;35.90;16.80;;;;;;;7.84;75.47;99846.27;116655;1201;22978;-65
2021/10/14 08:13:50;;;;;;;42.70;17.80;;;;;;;7.90;74.92;99851.65;116530;1200;139008;-65
2021/10/14 08:16:34;;;;;;;42.50;18.60;;;;;;;7.98;74.27;99850.39;116619;1200;22296;-65
2021/10/14 08:19:02;;;;;;;45.40;20.50;;;;;;;8.01;73.88;99851.60;116677;1200;22483;-65
2021/10/14 08:21:30;;;;;;;26.70;15.50;;;;;;;8.05;73.68;99856.01;116526;1200;138010;-65
2021/10/14 08:23:59;;;;;;;28.00;15.50;;;;;;;8.09;73.13;99855.96;116670;1200;22747;-65
2021/10/14 08:26:27;;;;;;;41.90;19.70;;;;;;;8.10;72.88;99853.56;116551;1200;137934;-65
2021/10/14 08:28:55;;;;;;;32.10;17.70;;;;;;;8.14;73.18;99854.42;116626;1201;23527;-65
2021/10/14 08:31:24;;;;;;;33.50;16.70;;;;;;;8.21;73.11;99852.86;116594;1195;139356;-65
2021/10/14 08:33:53;;;;;;;29.20;17.60;;;;;;;8.28;73.02;99852.44;116632;1201;22283;-65
2021/10/14 08:36:21;;;;;;;27.50;16.90;;;;;;;8.35;72.84;99852.31;114544;1200;22429;-65
2021/10/14 08:38:49;;;;;;;25.80;15.30;;;;;;;8.44;72.78;99855.28;112296;1180;138913;-64
2021/10/14 08:41:19;;;;;;;27.60;15.60;;;;;;;8.52;72.72;99861.08;116587;1200;23502;-65
2021/10/14 08:43:47;;;;;;;32.80;16.40;;;;;;;8.57;72.20;99860.65;116576;1200;138145;-65
2021/10/14 08:46:15;;;;;;;23.40;13.60;;;;;;;8.62;71.75;99865.16;116690;1200;22351;-65
2021/10/14 08:48:43;;;;;;;20.00;12.80;;;;;;;8.65;70.89;99862.77;116558;1201;23057;-65
2021/10/14 08:51:11;;;;;;;26.10;14.10;;;;;;;8.64;70.43;99865.27;116433;1200;138317;-65
2021/10/14 08:53:41;;;;;;;24.10;13.90;;;;;;;8.64;70.62;99862.66;116565;1200;22322;-66
2021/10/14 08:56:11;;;;;;;24.60;13.80;;;;;;;8.68;70.63;99863.33;116547;1200;140745;-65
2021/10/14 08:58:40;;;;;;;27.70;16.20;;;;;;;8.74;70.54;99868.91;116651;1189;23132;-65
2021/10/14 09:01:10;;;;;;;29.00;15.40;;;;;;;8.81;70.39;99866.23;116600;1200;22613;-65
2021/10/14 09:03:44;;;;;;;24.70;14.70;;;;;;;8.86;70.08;99869.38;116533;1200;137801;-65
2021/10/14 09:06:12;;;;;;;25.90;14.30;;;;;;;8.89;69.93;99866.02;116692;1200;22331;-65
2021/10/14 09:08:42;;;;;;;23.20;14.20;;;;;;;8.95;70.04;99869.30;116512;1197;138458;-65
2021/10/14 09:11:23;;;;;;;19.90;13.10;;;;;;;9.01;69.95;99869.55;116652;1200;22367;-65
2021/10/14 09:13:53;;;;;;;22.90;12.90;;;;;;;9.09;69.54;99875.28;116549;1200;138053;-65
2021/10/14 09:16:28;;;;;;;19.60;13.00;;;;;;;9.17;69.28;99878.53;116643;1200;23052;-65
2021/10/14 09:19:09;;;;;;;19.00;12.70;;;;;;;9.21;69.05;99874.67;116668;1201;22390;-65
2021/10/14 09:21:37;;;;;;;22.90;14.00;;;;;;;9.27;68.72;99876.60;116484;1201;137829;-65
2021/10/14 09:24:31;;;;;;;23.00;13.80;;;;;;;9.31;68.52;99876.44;116607;1200;23069;-65
2021/10/14 09:27:01;;;;;;;25.00;13.50;;;;;;;9.38;68.07;99883.36;116569;1200;138839;-65
2021/10/14 09:29:29;;;;;;;19.80;14.00;;;;;;;9.44;67.81;99884.02;116610;1201;22349;-65
2021/10/14 09:32:01;;;;;;;24.80;15.00;;;;;;;9.48;68.01;99885.91;116542;1200;139352;-65
2021/10/14 09:34:38;;;;;;;20.90;13.60;;;;;;;9.52;68.01;99880.45;116662;1201;22254;-65
2021/10/14 09:37:26;;;;;;;18.60;12.90;;;;;;;9.57;67.50;99875.36;116604;1201;23319;-61
2021/10/14 09:39:58;;;;;;;21.90;14.90;;;;;;;9.60;67.68;99875.98;116419;1201;137728;-65
2021/10/14 09:42:53;;;;;;;21.10;14.50;;;;;;;9.66;67.74;99877.48;116685;1200;22401;-63
2021/10/14 09:45:24;;;;;;;21.50;12.90;;;;;;;9.72;67.73;99874.95;116439;1201;138095;-63
2021/10/14 09:48:05;;;;;;;19.30;13.40;;;;;;;9.78;67.45;99881.98;116637;1201;22365;-63
2021/10/14 09:50:53;;;;;;;23.70;14.10;;;;;;;9.84;67.24;99883.97;116513;1200;138403;-63
2021/10/14 09:53:24;;;;;;;16.80;10.90;;;;;;;9.90;66.93;99886.65;116655;1193;22328;-61
2021/10/14 09:55:53;;;;;;;16.30;11.80;;;;;;;9.96;66.43;99887.73;116522;1200;139117;-61
2021/10/14 09:58:24;;;;;;;27.30;12.80;;;;;;;10.02;66.06;99885.45;116622;1201;22319;-63
2021/10/14 10:00:52;;;;;;;21.90;12.50;;;;;;;10.08;65.99;99886.28;116635;1201;23338;-63
2021/10/14 10:03:22;;;;;;;19.40;11.40;;;;;;;10.14;65.54;99890.34;116542;1201;138942;-61
2021/10/14 10:05:52;;;;;;;17.70;11.60;;;;;;;10.19;65.17;99891.98;116654;1201;23686;-65
2021/10/14 10:08:33;;;;;;;18.30;12.00;;;;;;;10.21;65.12;99890.84;116550;1201;138070;-66
2021/10/14 10:11:17;;;;;;;20.50;13.70;;;;;;;10.25;65.04;99885.62;116550;1201;22287;-66
2021/10/14 10:13:51;;;;;;;18.10;11.50;;;;;;;10.28;65.19;99889.03;116515;1195;138426;-66
2021/10/14 10:16:20;;;;;;;21.10;13.30;;;;;;;10.31;65.33;99893.88;116595;1201;22380;-65
2021/10/14 10:18:50;;;;;;;18.20;13.60;;;;;;;10.33;65.15;99901.11;116672;1200;22335;-65
2021/10/14 10:21:30;;;;;;;22.00;13.70;;;;;;;10.34;65.28;99904.48;116455;1201;138452;-66
2021/10/14 10:24:01;;;;;;;18.10;14.70;;;;;;;10.33;65.04;99907.44;116587;1200;23203;-66
2021/10/14 10:26:32;;;;;;;24.50;15.20;;;;;;;10.34;65.05;99914.46;116477;1200;139086;-66
2021/10/14 10:29:02;;;;;;;24.50;14.30;;;;;;;10.34;65.37;99911.95;116619;1201;22324;-66
2021/10/14 10:31:51;;;;;;;18.60;13.60;;;;;;;10.33;65.23;99917.55;116657;1201;23364;-66
2021/10/14 10:34:30;;;;;;;20.40;13.70;;;;;;;10.31;64.67;99917.63;116613;1201;22320;-66
2021/10/14 10:37:16;;;;;;;19.40;13.60;;;;;;;10.30;64.50;99917.11;116648;1200;22123;-66
2021/10/14 10:40:01;;;;;;;29.40;14.20;;;;;;;10.30;64.32;99919.45;116593;1201;139221;-66
2021/10/14 10:42:31;;;;;;;18.90;13.30;;;;;;;10.33;64.37;99918.96;116591;1201;22332;-66
2021/10/14 10:45:29;;;;;;;24.30;13.10;;;;;;;10.36;64.10;99915.92;116380;1201;139204;-66
2021/10/14 10:47:59;;;;;;;21.90;12.30;;;;;;;10.40;64.19;99915.21;116679;1201;22417;-65
2021/10/14 10:50:33;;;;;;;22.50;13.70;;;;;;;10.44;64.30;99917.52;116490;1201;139106;-66
2021/10/14 10:53:05;;;;;;;20.30;13.90;;;;;;;10.47;63.90;99915.93;116645;1200;22153;-66
2021/10/14 10:55:34;;;;;;;19.60;12.40;;;;;;;10.47;63.55;99917.47;116605;1201;22374;-66
2021/10/14 10:58:03;;;;;;;18.80;12.00;;;;;;;10.46;62.87;99919.77;116433;1201;139003;-66
2021/10/14 11:00:32;;;;;;;16.90;11.50;;;;;;;10.41;62.21;99926.08;116644;1201;22326;-66
2021/10/14 11:03:20;;;;;;;13.90;9.90;;;;;;;10.32;62.20;99925.65;116565;1200;139331;-66
2021/10/14 11:05:51;;;;;;;18.40;9.50;;;;;;;10.26;61.41;99932.94;116621;1200;22297;-65
2021/10/14 11:08:24;;;;;;;10.70;8.80;;;;;;;10.20;61.20;99932.05;116497;1200;139023;-64
2021/10/14 11:11:13;;;;;;;20.00;9.20;;;;;;;10.16;60.90;99934.66;116556;1201;22177;-64
2021/10/14 11:13:43;;;;;;;12.80;9.20;;;;;;;10.16;61.40;99931.98;116540;1201;22238;-65
2021/10/14 11:16:12;;;;;;;12.20;9.10;;;;;;;10.17;61.06;99930.99;116534;1201;139209;-65
2021/10/14 11:18:47;;;;;;;14.70;8.90;;;;;;;10.21;60.61;99931.14;116569;1201;22436;-63
2021/10/14 11:21:36;;;;;;;13.60;9.10;;;;;;;10.28;60.83;99933.36;116516;1200;139816;-64
2021/10/14 11:24:04;;;;;;;12.90;9.30;;;;;;;10.36;60.37;99934.11;116621;1201;22384;-61
2021/10/14 11:29:16;;;;;;;12.20;8.20;;;;;;;10.43;59.42;99938.70;116593;1201;23124;-61
2021/10/14 11:31:47;;;;;;;15.70;7.80;;;;;;;10.41;59.45;99940.83;116658;1193;22221;-65